Time;durP1;ratioP1;P1;durP2;ratioP2;P2;SDS_P1;SDS_P2;PMS_P1;PMS_P2;Temp;Humidity;BMP_temperature;BMP_pressure;BME280_temperature;BME280_humidity;BME280_pressure;Samples;Min_cycle;Max_cycle;Signal;HPM_P1;HPM_P2
2023/01/29 00:04:37;;;;;;;26.80;22.15;;;;;;;;;;10335710;28;20079;-68
2023/01/29 00:09:35;;;;;;;27.13;24.10;;;;;;;;;;10327581;28;20074;-68
2023/01/29 00:14:33;;;;;;;20.38;17.80;;;;;;;;;;10324631;28;20064;-68
2023/01/29 00:19:32;;;;;;;15.35;13.77;;;;;;;;;;10328883;28;20067;-68
2023/01/29 00:24:31;;;;;;;12.82;11.52;;;;;;;;;;10327087;28;20080;-68
2023/01/29 00:29:30;;;;;;;11.55;10.45;;;;;;;;;;10335951;28;20074;-68
2023/01/29 00:34:28;;;;;;;10.02;9.10;;;;;;;;;;10332509;28;20067;-68
2023/01/29 00:39:37;;;;;;;17.35;12.60;;;;;;;;;;10333710;28;20075;-68
2023/01/29 00:44:58;;;;;;;15.15;12.75;;;;;;;;;;10332600;28;20083;-69
2023/01/29 00:49:57;;;;;;;13.52;11.77;;;;;;;;;;10330160;28;20095;-69
2023/01/29 00:54:56;;;;;;;14.70;12.23;;;;;;;;;;10333807;28;20082;-69
2023/01/29 00:59:55;;;;;;;12.20;10.25;;;;;;;;;;10312888;28;20466;-69
2023/01/29 01:04:53;;;;;;;9.88;8.98;;;;;;;;;;10326506;28;20076;-69
2023/01/29 01:15:07;;;;;;;;;;;;;;;;;;10335686;28;20063;-68
2023/01/29 01:20:07;;;;;;;8.70;7.55;;;;;;;;;;10313684;28;19958;-68
2023/01/29 01:25:06;;;;;;;6.90;6.22;;;;;;;;;;10334015;28;20088;-67
2023/01/29 01:30:04;;;;;;;10.70;8.02;;;;;;;;;;10334723;28;20064;-68
2023/01/29 01:35:03;;;;;;;10.00;6.85;;;;;;;;;;10340424;28;20071;-68
2023/01/29 01:40:04;;;;;;;14.55;10.65;;;;;;;;;;10335119;28;20094;-68
2023/01/29 01:45:05;;;;;;;8.60;7.25;;;;;;;;;;10335539;28;20072;-69
2023/01/29 01:50:07;;;;;;;7.47;5.93;;;;;;;;;;10331523;28;20074;-68
2023/01/29 01:55:07;;;;;;;13.00;10.93;;;;;;;;;;10315012;28;20068;-68
2023/01/29 02:00:11;;;;;;;12.88;9.25;;;;;;;;;;10335545;28;20071;-69
2023/01/29 02:10:32;;;;;;;9.00;7.47;;;;;;;;;;10336415;28;20080;-69
2023/01/29 02:15:30;;;;;;;10.02;8.55;;;;;;;;;;10327155;28;20048;-69
2023/01/29 02:20:30;;;;;;;8.10;6.45;;;;;;;;;;10342053;28;20102;-69
2023/01/29 02:25:47;;;;;;;15.57;12.60;;;;;;;;;;10325912;28;20540;-68
2023/01/29 02:30:50;;;;;;;22.17;17.48;;;;;;;;;;10341304;28;20072;-68
2023/01/29 02:35:54;;;;;;;7.88;7.05;;;;;;;;;;10339896;28;20528;-68
2023/01/29 02:40:54;;;;;;;8.48;7.25;;;;;;;;;;10342423;28;20075;-69
2023/01/29 02:45:57;;;;;;;20.60;13.23;;;;;;;;;;10341531;28;20079;-68
2023/01/29 02:50:58;;;;;;;8.98;7.13;;;;;;;;;;10332286;28;20076;-68
2023/01/29 02:55:59;;;;;;;12.02;10.32;;;;;;;;;;10340820;28;20064;-68
2023/01/29 03:01:01;;;;;;;13.38;9.80;;;;;;;;;;10341822;28;20068;-69
2023/01/29 03:06:06;;;;;;;8.90;6.78;;;;;;;;;;10337170;28;20099;-69
2023/01/29 03:11:06;;;;;;;29.30;19.92;;;;;;;;;;10336884;28;20075;-68
2023/01/29 03:16:11;;;;;;;14.20;10.05;;;;;;;;;;10321346;28;20478;-68
2023/01/29 03:32:05;;;;;;;6.10;5.50;;;;;;;;;;10335731;28;20476;-68
2023/01/29 03:37:08;;;;;;;7.40;6.07;;;;;;;;;;10329659;28;20099;-69
2023/01/29 03:42:11;;;;;;;10.95;9.20;;;;;;;;;;10321480;28;20468;-69
2023/01/29 03:47:14;;;;;;;8.15;6.45;;;;;;;;;;10327082;28;20075;-70
2023/01/29 03:52:15;;;;;;;7.38;6.32;;;;;;;;;;10335697;28;20044;-69
2023/01/29 03:57:16;;;;;;;11.82;9.77;;;;;;;;;;10314462;28;20094;-70
2023/01/29 04:02:26;;;;;;;10.77;8.35;;;;;;;;;;10315652;28;20080;-68
2023/01/29 04:07:32;;;;;;;11.05;9.52;;;;;;;;;;10325624;28;20071;-69
2023/01/29 04:12:36;;;;;;;27.15;18.35;;;;;;;;;;10321617;28;20772;-69
2023/01/29 04:17:38;;;;;;;9.18;8.05;;;;;;;;;;10342190;28;20157;-69
2023/01/29 04:22:50;;;;;;;15.85;14.25;;;;;;;;;;10316244;28;20099;-70
2023/01/29 04:27:57;;;;;;;15.82;14.23;;;;;;;;;;10336478;28;20064;-69
2023/01/29 04:33:03;;;;;;;22.50;18.58;;;;;;;;;;10311947;28;20072;-69
2023/01/29 04:38:07;;;;;;;12.02;10.82;;;;;;;;;;10320244;28;20080;-69
2023/01/29 04:43:07;;;;;;;18.33;14.13;;;;;;;;;;10333797;28;20083;-69
2023/01/29 04:48:12;;;;;;;11.80;10.10;;;;;;;;;;10333501;28;20071;-69
2023/01/29 04:53:10;;;;;;;;;;;;;;;;;;10333725;28;20064;-69
2023/01/29 04:58:11;;;;;;;17.75;14.95;;;;;;;;;;10336375;28;19966;-69
2023/01/29 05:03:12;;;;;;;8.52;7.63;;;;;;;;;;10338164;28;20077;-69
2023/01/29 05:08:13;;;;;;;7.57;6.72;;;;;;;;;;10333526;28;20075;-69
2023/01/29 05:13:12;;;;;;;7.80;7.03;;;;;;;;;;10336061;28;20098;-69
2023/01/29 05:18:11;;;;;;;42.50;27.77;;;;;;;;;;10334938;28;20072;-69
2023/01/29 05:23:10;;;;;;;46.08;32.70;;;;;;;;;;10336469;28;20060;-69
2023/01/29 05:28:15;;;;;;;27.55;19.90;;;;;;;;;;10332010;28;20068;-69
2023/01/29 05:33:16;;;;;;;234.07;149.20;;;;;;;;;;10332651;28;20060;-69
2023/01/29 05:38:14;;;;;;;43.55;32.70;;;;;;;;;;10337344;28;20334;-70
2023/01/29 05:43:14;;;;;;;24.17;21.40;;;;;;;;;;10336492;28;20539;-69
2023/01/29 05:48:12;;;;;;;13.13;11.82;;;;;;;;;;10339527;28;20575;-69
2023/01/29 05:53:12;;;;;;;14.40;12.70;;;;;;;;;;10337756;28;20072;-69
2023/01/29 05:58:10;;;;;;;39.92;25.15;;;;;;;;;;10338640;28;20079;-69
2023/01/29 06:03:09;;;;;;;11.55;10.35;;;;;;;;;;10343730;28;20068;-69
2023/01/29 06:08:07;;;;;;;16.50;14.48;;;;;;;;;;10341749;28;20068;-70
2023/01/29 06:13:07;;;;;;;17.15;12.55;;;;;;;;;;10344104;28;20071;-69
2023/01/29 06:18:05;;;;;;;14.18;11.02;;;;;;;;;;10345756;28;20056;-69
2023/01/29 06:23:03;;;;;;;13.60;11.18;;;;;;;;;;10343561;28;20074;-69
2023/01/29 06:28:01;;;;;;;18.13;16.20;;;;;;;;;;10342358;28;20063;-69
2023/01/29 06:33:01;;;;;;;16.42;13.32;;;;;;;;;;10335826;28;20072;-69
2023/01/29 06:37:59;;;;;;;100.57;71.55;;;;;;;;;;10342600;28;20076;-70
2023/01/29 06:43:00;;;;;;;17.70;15.80;;;;;;;;;;10339538;28;20071;-69
2023/01/29 06:47:58;;;;;;;28.73;25.77;;;;;;;;;;10338023;28;20072;-70
2023/01/29 06:53:00;;;;;;;14.27;11.02;;;;;;;;;;10319587;28;20068;-69
2023/01/29 06:57:58;;;;;;;21.80;16.55;;;;;;;;;;10336262;28;20078;-70
2023/01/29 07:02:56;;;;;;;14.63;12.85;;;;;;;;;;10340133;28;20055;-69
2023/01/29 07:07:55;;;;;;;24.98;18.55;;;;;;;;;;10351434;28;20063;-69
2023/01/29 07:12:54;;;;;;;13.93;12.15;;;;;;;;;;10349552;28;20507;-69
2023/01/29 07:17:56;;;;;;;28.90;22.33;;;;;;;;;;10354246;28;20083;-69
2023/01/29 07:22:55;;;;;;;24.27;20.20;;;;;;;;;;10328264;28;20071;-70
2023/01/29 07:27:54;;;;;;;15.30;13.68;;;;;;;;;;10346601;28;20597;-69
2023/01/29 07:32:52;;;;;;;27.75;20.40;;;;;;;;;;10348091;28;20066;-69
2023/01/29 07:37:51;;;;;;;32.42;26.77;;;;;;;;;;10335883;28;20717;-70
2023/01/29 08:53:14;;;;;;;53.83;36.15;;;;;;;;;;10340637;28;20084;-68
2023/01/29 08:58:12;;;;;;;43.50;31.88;;;;;;;;;;10334739;28;20098;-68
2023/01/29 09:03:11;;;;;;;25.10;22.60;;;;;;;;;;10337791;28;20082;-67
2023/01/29 09:08:09;;;;;;;17.73;14.88;;;;;;;;;;10327729;28;20071;-68
2023/01/29 09:13:09;;;;;;;13.02;11.65;;;;;;;;;;10334535;28;20749;-67
2023/01/29 09:18:07;;;;;;;18.38;15.70;;;;;;;;;;10334011;28;20095;-67
2023/01/29 09:23:05;;;;;;;20.15;17.48;;;;;;;;;;10342708;28;20059;-68
2023/01/29 09:28:05;;;;;;;19.50;16.67;;;;;;;;;;10339616;28;20071;-68
2023/01/29 09:33:04;;;;;;;135.00;84.60;;;;;;;;;;10344756;28;20070;-68
2023/01/29 09:38:02;;;;;;;59.55;46.03;;;;;;;;;;10353076;28;20072;-68
2023/01/29 09:43:02;;;;;;;25.73;22.92;;;;;;;;;;10355409;28;20060;-68
2023/01/29 09:48:02;;;;;;;64.63;43.50;;;;;;;;;;10355487;28;20063;-69
2023/01/29 09:53:05;;;;;;;62.78;41.75;;;;;;;;;;10345742;28;20501;-69
2023/01/29 09:58:05;;;;;;;34.92;27.02;;;;;;;;;;10335437;28;20504;-69
2023/01/29 10:03:10;;;;;;;48.15;33.25;;;;;;;;;;10335356;28;20068;-68
2023/01/29 10:08:25;;;;;;;28.95;25.85;;;;;;;;;;10338540;28;20087;-68
2023/01/29 10:13:27;;;;;;;34.37;26.93;;;;;;;;;;10337563;28;20052;-69
2023/01/29 10:18:44;;;;;;;22.80;20.63;;;;;;;;;;10336326;28;20521;-68
2023/01/29 10:23:47;;;;;;;53.38;38.90;;;;;;;;;;10338913;28;20078;-68
2023/01/29 10:28:49;;;;;;;62.10;46.47;;;;;;;;;;10336449;28;20079;-68
2023/01/29 10:33:49;;;;;;;35.65;30.15;;;;;;;;;;10340201;28;20068;-67
2023/01/29 10:39:00;;;;;;;28.23;22.77;;;;;;;;;;10341218;28;20524;-70
2023/01/29 10:44:05;;;;;;;42.05;30.90;;;;;;;;;;10343593;28;20067;-68
2023/01/29 10:49:10;;;;;;;31.20;24.40;;;;;;;;;;10347047;28;20123;-70
2023/01/29 10:54:16;;;;;;;59.15;43.97;;;;;;;;;;10331113;28;20305;-69
2023/01/29 10:59:24;;;;;;;66.30;55.58;;;;;;;;;;10335159;28;20071;-69
2023/01/29 11:04:22;;;;;;;119.53;81.00;;;;;;;;;;10334831;28;20161;-69
2023/01/29 11:09:27;;;;;;;43.50;33.33;;;;;;;;;;10332609;28;20100;-68
2023/01/29 11:14:28;;;;;;;76.70;57.90;;;;;;;;;;10331643;28;20068;-68
2023/01/29 11:19:36;;;;;;;67.20;48.63;;;;;;;;;;10334854;28;20076;-69
2023/01/29 11:24:36;;;;;;;36.00;25.30;;;;;;;;;;10336280;28;20068;-68
2023/01/29 11:29:37;;;;;;;43.53;26.77;;;;;;;;;;10333135;28;20090;-69
2023/01/29 11:34:55;;;;;;;122.82;58.28;;;;;;;;;;10336496;28;20067;-68
2023/01/29 11:39:55;;;;;;;43.40;34.45;;;;;;;;;;10335566;28;20090;-68
2023/01/29 11:44:53;;;;;;;38.63;33.10;;;;;;;;;;10335162;28;20071;-68
2023/01/29 11:49:52;;;;;;;40.78;34.03;;;;;;;;;;10334388;28;20060;-69
2023/01/29 11:54:52;;;;;;;28.48;25.05;;;;;;;;;;10336865;28;20075;-68
2023/01/29 11:59:53;;;;;;;22.38;18.80;;;;;;;;;;10335121;28;20083;-68
2023/01/29 12:04:51;;;;;;;154.55;109.30;;;;;;;;;;10317375;28;20102;-68
2023/01/29 12:09:52;;;;;;;98.75;64.55;;;;;;;;;;10335547;28;20078;-68
2023/01/29 12:15:02;;;;;;;51.22;39.35;;;;;;;;;;10339012;28;20177;-68
2023/01/29 12:20:03;;;;;;;33.83;29.58;;;;;;;;;;10333017;28;20083;-68
2023/01/29 12:25:04;;;;;;;86.68;66.90;;;;;;;;;;10334471;28;20078;-68
2023/01/29 12:30:08;;;;;;;30.98;25.50;;;;;;;;;;10332434;28;20076;-68
2023/01/29 12:35:10;;;;;;;47.60;36.03;;;;;;;;;;10332850;28;20060;-68
2023/01/29 12:40:12;;;;;;;50.08;36.38;;;;;;;;;;10332346;28;20099;-68
2023/01/29 12:45:16;;;;;;;42.63;31.38;;;;;;;;;;10328209;28;20078;-69
2023/01/29 12:50:14;;;;;;;45.33;35.17;;;;;;;;;;10327540;28;20092;-68
2023/01/29 12:55:16;;;;;;;48.70;35.50;;;;;;;;;;10331407;28;20064;-68
2023/01/29 13:00:18;;;;;;;36.63;29.02;;;;;;;;;;10334393;28;20064;-68
2023/01/29 13:05:19;;;;;;;37.42;31.13;;;;;;;;;;10335101;28;20501;-68
2023/01/29 13:10:18;;;;;;;154.15;84.93;;;;;;;;;;10333132;28;20087;-68
2023/01/29 13:15:22;;;;;;;380.80;195.73;;;;;;;;;;10330838;28;20094;-68
2023/01/29 13:20:24;;;;;;;201.05;119.45;;;;;;;;;;10330034;28;20189;-69
2023/01/29 13:25:22;;;;;;;110.32;77.75;;;;;;;;;;10331069;28;20075;-68
2023/01/29 13:30:25;;;;;;;67.45;52.22;;;;;;;;;;10334261;28;20527;-68
2023/01/29 13:35:24;;;;;;;88.13;63.63;;;;;;;;;;10331724;28;20090;-69
2023/01/29 13:40:24;;;;;;;111.25;91.72;;;;;;;;;;10334543;28;20539;-69
2023/01/29 13:45:23;;;;;;;106.07;82.72;;;;;;;;;;10335200;28;20067;-69
2023/01/29 13:50:25;;;;;;;45.03;38.70;;;;;;;;;;10331198;28;20076;-70
2023/01/29 13:55:29;;;;;;;33.92;26.35;;;;;;;;;;10328992;28;20079;-70
2023/01/29 14:00:55;;;;;;;96.97;62.70;;;;;;;;;;10310643;28;20446;-68
2023/01/29 14:05:59;;;;;;;116.77;73.20;;;;;;;;;;10316504;28;20087;-68
2023/01/29 14:11:13;;;;;;;82.28;58.88;;;;;;;;;;10339246;28;20532;-68
2023/01/29 14:16:28;;;;;;;72.55;57.35;;;;;;;;;;10337017;28;20063;-70
2023/01/29 14:21:30;;;;;;;58.80;36.83;;;;;;;;;;10339224;28;20076;-70
2023/01/29 14:26:30;;;;;;;27.75;20.67;;;;;;;;;;10335859;28;20071;-70
2023/01/29 14:31:29;;;;;;;30.98;21.58;;;;;;;;;;10337784;28;20071;-71
2023/01/29 14:36:38;;;;;;;37.50;26.20;;;;;;;;;;10338179;28;20507;-71
2023/01/29 14:41:36;;;;;;;36.30;24.92;;;;;;;;;;10337259;28;20087;-71
2023/01/29 14:46:52;;;;;;;41.80;30.42;;;;;;;;;;10334202;28;20462;-72
2023/01/29 14:51:52;;;;;;;39.60;26.35;;;;;;;;;;10335927;28;20513;-72
2023/01/29 14:56:56;;;;;;;61.85;42.53;;;;;;;;;;10337521;28;20476;-71
2023/01/29 15:01:55;;;;;;;80.55;53.88;;;;;;;;;;10352908;28;20485;-71
2023/01/29 15:06:59;;;;;;;97.28;58.45;;;;;;;;;;10336338;28;20067;-71
2023/01/29 15:12:00;;;;;;;79.27;48.83;;;;;;;;;;10341613;28;20048;-71
2023/01/29 15:17:07;;;;;;;79.63;48.47;;;;;;;;;;10338600;28;20047;-71
2023/01/29 15:22:11;;;;;;;65.82;41.95;;;;;;;;;;10336126;28;20067;-71
2023/01/29 15:27:12;;;;;;;75.97;52.15;;;;;;;;;;10335932;28;20091;-71
2023/01/29 15:32:14;;;;;;;103.40;86.88;;;;;;;;;;10339159;28;20072;-71
2023/01/29 15:37:27;;;;;;;77.30;66.07;;;;;;;;;;10334539;28;20072;-71
2023/01/29 15:42:26;;;;;;;69.57;55.65;;;;;;;;;;10333558;28;20469;-70
2023/01/29 15:47:27;;;;;;;55.33;39.17;;;;;;;;;;10333572;28;20044;-71
2023/01/29 15:52:28;;;;;;;47.97;34.63;;;;;;;;;;10334002;28;20083;-71
2023/01/29 15:57:32;;;;;;;48.33;32.72;;;;;;;;;;10331901;28;20076;-71
2023/01/29 16:02:39;;;;;;;42.33;36.00;;;;;;;;;;10334606;28;20068;-72
2023/01/29 16:07:39;;;;;;;30.95;25.13;;;;;;;;;;10337484;28;20334;-72
2023/01/29 16:12:37;;;;;;;34.90;28.10;;;;;;;;;;10336007;28;20071;-71
2023/01/29 16:17:40;;;;;;;24.63;20.08;;;;;;;;;;10330865;28;20108;-71
2023/01/29 16:22:40;;;;;;;39.00;30.90;;;;;;;;;;10332797;28;20115;-70
2023/01/29 16:27:42;;;;;;;29.17;24.65;;;;;;;;;;10334821;28;20072;-71
2023/01/29 16:32:40;;;;;;;23.65;21.30;;;;;;;;;;10336306;28;20078;-70
2023/01/29 16:37:40;;;;;;;17.67;15.77;;;;;;;;;;10333019;28;20075;-71
2023/01/29 16:42:39;;;;;;;21.70;19.50;;;;;;;;;;10331990;28;20072;-71
2023/01/29 16:47:40;;;;;;;38.10;27.30;;;;;;;;;;10333175;28;20075;-71
2023/01/29 16:52:40;;;;;;;37.15;25.55;;;;;;;;;;10333675;28;20080;-71
2023/01/29 16:57:39;;;;;;;24.42;18.73;;;;;;;;;;10333642;28;20468;-71
2023/01/29 17:02:38;;;;;;;26.10;20.48;;;;;;;;;;10334156;28;20076;-71
2023/01/29 17:07:37;;;;;;;39.25;24.58;;;;;;;;;;10330755;28;20072;-71
2023/01/29 17:12:36;;;;;;;23.20;18.17;;;;;;;;;;10333153;28;20079;-72
2023/01/29 17:17:36;;;;;;;20.88;15.27;;;;;;;;;;10330458;28;20060;-71
2023/01/29 17:22:34;;;;;;;45.60;34.30;;;;;;;;;;10331282;28;20068;-70
2023/01/29 17:27:32;;;;;;;62.28;44.28;;;;;;;;;;10331898;28;20489;-71
2023/01/29 17:32:32;;;;;;;39.70;29.92;;;;;;;;;;10331495;28;20079;-71
2023/01/29 17:37:42;;;;;;;74.72;48.35;;;;;;;;;;10331403;28;20064;-71
2023/01/29 17:42:40;;;;;;;98.18;69.97;;;;;;;;;;10332672;28;20076;-71
2023/01/29 17:47:40;;;;;;;71.25;49.75;;;;;;;;;;10339015;28;20068;-71
2023/01/29 17:52:38;;;;;;;79.38;49.97;;;;;;;;;;10338563;28;20087;-71
2023/01/29 17:57:36;;;;;;;108.40;67.25;;;;;;;;;;10340224;28;20072;-71
2023/01/29 18:02:34;;;;;;;60.88;44.30;;;;;;;;;;10341550;28;20072;-71
2023/01/29 18:07:34;;;;;;;57.85;39.03;;;;;;;;;;10341093;28;20181;-71
2023/01/29 18:12:32;;;;;;;63.33;42.15;;;;;;;;;;10342852;28;20165;-71
2023/01/29 18:17:31;;;;;;;39.83;30.65;;;;;;;;;;10345963;28;20067;-70
2023/01/29 18:22:29;;;;;;;35.60;27.90;;;;;;;;;;10338229;28;20071;-71
2023/01/29 18:27:28;;;;;;;44.88;34.35;;;;;;;;;;10343797;28;20078;-71
2023/01/29 18:32:27;;;;;;;26.65;23.73;;;;;;;;;;10341052;28;20099;-71
2023/01/29 18:37:25;;;;;;;36.20;29.50;;;;;;;;;;10343022;28;20068;-71
2023/01/29 18:42:23;;;;;;;33.33;29.50;;;;;;;;;;10337915;28;20071;-70
2023/01/29 18:47:23;;;;;;;43.30;33.33;;;;;;;;;;10339896;28;20508;-71
2023/01/29 18:52:21;;;;;;;44.92;36.60;;;;;;;;;;10350089;28;20098;-71
2023/01/29 18:57:20;;;;;;;69.50;47.10;;;;;;;;;;10337362;28;20071;-71
2023/01/29 19:02:41;;;;;;;79.63;52.53;;;;;;;;;;10336903;28;20075;-70
2023/01/29 19:07:39;;;;;;;30.08;25.70;;;;;;;;;;10341697;28;20126;-70
2023/01/29 19:12:39;;;;;;;22.55;19.38;;;;;;;;;;10338851;28;20083;-69
2023/01/29 19:17:38;;;;;;;52.58;40.42;;;;;;;;;;10335514;28;20044;-69
2023/01/29 19:22:39;;;;;;;40.80;33.50;;;;;;;;;;10335541;28;20072;-69
2023/01/29 19:27:37;;;;;;;28.90;22.42;;;;;;;;;;10338881;28;20072;-69
2023/01/29 19:32:36;;;;;;;45.72;35.92;;;;;;;;;;10338320;28;20072;-69
2023/01/29 19:37:34;;;;;;;81.57;58.60;;;;;;;;;;10340124;28;20090;-69
2023/01/29 19:42:36;;;;;;;70.00;50.08;;;;;;;;;;10339949;28;20079;-69
2023/01/29 19:47:37;;;;;;;54.50;44.33;;;;;;;;;;10332754;28;20110;-69
2023/01/29 19:52:36;;;;;;;94.10;66.20;;;;;;;;;;10335890;28;20103;-69
2023/01/29 19:57:51;;;;;;;93.18;64.25;;;;;;;;;;10332524;28;20076;-70
2023/01/29 20:02:51;;;;;;;76.57;59.95;;;;;;;;;;10334328;28;20489;-70
2023/01/29 20:07:49;;;;;;;34.50;29.02;;;;;;;;;;10337854;28;20068;-70
2023/01/29 20:12:47;;;;;;;32.00;26.48;;;;;;;;;;10335428;28;20071;-70
2023/01/29 20:17:47;;;;;;;35.75;27.67;;;;;;;;;;10333961;28;20059;-71
2023/01/29 20:22:45;;;;;;;32.08;27.05;;;;;;;;;;10337095;28;20404;-70
2023/01/29 20:27:44;;;;;;;38.25;32.05;;;;;;;;;;10333607;28;20087;-70
2023/01/29 20:32:43;;;;;;;33.92;29.75;;;;;;;;;;10335828;28;20079;-70
2023/01/29 20:37:43;;;;;;;35.67;29.35;;;;;;;;;;10330772;28;20075;-70
2023/01/29 20:42:41;;;;;;;29.08;24.80;;;;;;;;;;10344324;28;20071;-72
2023/01/29 20:47:41;;;;;;;33.22;26.33;;;;;;;;;;10338385;28;20103;-69
2023/01/29 20:52:40;;;;;;;57.25;40.75;;;;;;;;;;10339988;28;20142;-69
2023/01/29 20:57:40;;;;;;;54.92;42.35;;;;;;;;;;10338395;28;20086;-69
2023/01/29 21:02:41;;;;;;;48.70;35.72;;;;;;;;;;10329640;28;20079;-69
2023/01/29 21:07:40;;;;;;;45.83;33.55;;;;;;;;;;10328457;28;20071;-69
2023/01/29 21:12:40;;;;;;;27.67;20.30;;;;;;;;;;10334165;28;20076;-70
2023/01/29 21:17:39;;;;;;;25.33;20.60;;;;;;;;;;10328308;28;20098;-68
2023/01/29 21:22:41;;;;;;;30.40;23.30;;;;;;;;;;10341017;28;20064;-69
2023/01/29 21:27:44;;;;;;;72.97;50.47;;;;;;;;;;10326987;28;20071;-70
2023/01/29 21:32:42;;;;;;;25.02;20.25;;;;;;;;;;10328772;28;20502;-69
2023/01/29 21:37:40;;;;;;;24.02;19.17;;;;;;;;;;10331150;28;20071;-70
2023/01/29 21:47:56;;;;;;;20.40;16.25;;;;;;;;;;10328613;28;20072;-70
2023/01/29 21:52:54;;;;;;;19.58;15.65;;;;;;;;;;10331295;28;20079;-69
2023/01/29 21:57:52;;;;;;;21.23;15.65;;;;;;;;;;10330478;28;20064;-71
2023/01/29 22:02:51;;;;;;;24.88;17.67;;;;;;;;;;10335630;28;20051;-71
2023/01/29 22:07:51;;;;;;;19.63;15.60;;;;;;;;;;10329950;28;20091;-70
2023/01/29 22:12:49;;;;;;;20.42;16.77;;;;;;;;;;10335895;28;20097;-70
2023/01/29 22:17:48;;;;;;;21.15;16.92;;;;;;;;;;10333124;28;20130;-71
2023/01/29 22:22:46;;;;;;;19.23;14.93;;;;;;;;;;10336010;28;20064;-70
2023/01/29 22:27:45;;;;;;;19.33;14.85;;;;;;;;;;10340998;28;20079;-71
2023/01/29 22:32:44;;;;;;;16.73;13.82;;;;;;;;;;10336549;28;20147;-71
2023/01/29 22:37:42;;;;;;;16.70;13.13;;;;;;;;;;10339251;28;20541;-70
2023/01/29 22:42:40;;;;;;;18.52;14.02;;;;;;;;;;10338555;28;20072;-71
2023/01/29 22:47:40;;;;;;;17.25;13.30;;;;;;;;;;10339492;28;20072;-71
2023/01/29 22:52:41;;;;;;;17.65;12.80;;;;;;;;;;10339920;28;20080;-70
2023/01/29 22:57:40;;;;;;;20.55;14.63;;;;;;;;;;10333431;28;20083;-70
2023/01/29 23:02:38;;;;;;;14.93;11.57;;;;;;;;;;10335429;28;20080;-71
2023/01/29 23:07:37;;;;;;;17.48;12.82;;;;;;;;;;10343179;28;20068;-71
2023/01/29 23:12:35;;;;;;;12.90;11.50;;;;;;;;;;10341764;28;20515;-70
2023/01/29 23:17:34;;;;;;;13.95;11.60;;;;;;;;;;10339899;28;20138;-71
2023/01/29 23:22:32;;;;;;;16.10;11.98;;;;;;;;;;10338285;28;20064;-71
2023/01/29 23:27:31;;;;;;;13.98;10.93;;;;;;;;;;10340220;28;20516;-71
2023/01/29 23:32:29;;;;;;;10.95;9.38;;;;;;;;;;10338791;28;20497;-71
2023/01/29 23:37:28;;;;;;;11.35;9.38;;;;;;;;;;10343541;28;20141;-70
2023/01/29 23:42:26;;;;;;;11.55;9.50;;;;;;;;;;10339580;28;20076;-71
2023/01/29 23:47:25;;;;;;;10.63;8.48;;;;;;;;;;10335732;28;20095;-70
2023/01/29 23:52:23;;;;;;;11.57;9.15;;;;;;;;;;10336114;28;20090;-70
2023/01/29 23:57:22;;;;;;;13.65;9.88;;;;;;;;;;10337667;28;20146;-71
